sensor_id;sensor_type;location;lat;lon;timestamp;temperature;humidity
14359;DHT22;7263;49.418;11.064;2023-02-28T00:01:29;-2.70;99.90
14359;DHT22;7263;49.418;11.064;2023-02-28T00:03:56;-2.70;99.90
14359;DHT22;7263;49.418;11.064;2023-02-28T00:06:24;-2.80;99.90
14359;DHT22;7263;49.418;11.064;2023-02-28T00:08:51;-2.80;99.90
14359;DHT22;7263;49.418;11.064;2023-02-28T00:11:18;-2.80;99.90
14359;DHT22;7263;49.418;11.064;2023-02-28T00:13:46;-2.80;99.90
14359;DHT22;7263;49.418;11.064;2023-02-28T00:16:19;-2.80;99.90
14359;DHT22;7263;49.418;11.064;2023-02-28T00:18:47;-2.80;99.90
14359;DHT22;7263;49.418;11.064;2023-02-28T00:21:14;-2.80;99.90
14359;DHT22;7263;49.418;11.064;2023-02-28T00:23:42;-2.80;99.90
14359;DHT22;7263;49.418;11.064;2023-02-28T00:26:09;-6.10;99.90
14359;DHT22;7263;49.418;11.064;2023-02-28T00:28:36;1.00;99.90
14359;DHT22;7263;49.418;11.064;2023-02-28T00:31:03;-3.00;99.90
14359;DHT22;7263;49.418;11.064;2023-02-28T00:33:30;-3.00;99.90
14359;DHT22;7263;49.418;11.064;2023-02-28T00:36:05;-3.00;99.90
14359;DHT22;7263;49.418;11.064;2023-02-28T00:38:33;-3.10;99.90
14359;DHT22;7263;49.418;11.064;2023-02-28T00:41:01;-3.10;99.90
14359;DHT22;7263;49.418;11.064;2023-02-28T00:43:31;-3.00;99.90
14359;DHT22;7263;49.418;11.064;2023-02-28T00:45:58;-3.00;99.90
14359;DHT22;7263;49.418;11.064;2023-02-28T00:48:25;-3.00;99.90
14359;DHT22;7263;49.418;11.064;2023-02-28T00:50:51;-3.00;99.90
14359;DHT22;7263;49.418;11.064;2023-02-28T00:53:18;-3.00;99.90
14359;DHT22;7263;49.418;11.064;2023-02-28T00:55:45;-2.90;99.90
14359;DHT22;7263;49.418;11.064;2023-02-28T00:58:13;-2.90;99.90
14359;DHT22;7263;49.418;11.064;2023-02-28T01:00:40;-2.90;99.90
14359;DHT22;7263;49.418;11.064;2023-02-28T01:03:07;-2.90;99.90
14359;DHT22;7263;49.418;11.064;2023-02-28T01:05:33;-3.00;99.90
14359;DHT22;7263;49.418;11.064;2023-02-28T01:08:00;-3.00;99.90
14359;DHT22;7263;49.418;11.064;2023-02-28T01:10:28;-3.00;99.90
14359;DHT22;7263;49.418;11.064;2023-02-28T01:12:56;-2.90;99.90
14359;DHT22;7263;49.418;11.064;2023-02-28T01:15:24;-1.50;99.90
14359;DHT22;7263;49.418;11.064;2023-02-28T01:17:51;-1.90;99.90
14359;DHT22;7263;49.418;11.064;2023-02-28T01:20:18;-2.90;99.90
14359;DHT22;7263;49.418;11.064;2023-02-28T01:22:45;-3.00;99.90
14359;DHT22;7263;49.418;11.064;2023-02-28T01:25:13;-3.00;99.90
14359;DHT22;7263;49.418;11.064;2023-02-28T01:27:40;-2.90;99.90
14359;DHT22;7263;49.418;11.064;2023-02-28T01:30:08;-2.90;99.90
14359;DHT22;7263;49.418;11.064;2023-02-28T01:32:36;-3.00;99.90
14359;DHT22;7263;49.418;11.064;2023-02-28T01:35:03;-3.00;99.90
14359;DHT22;7263;49.418;11.064;2023-02-28T01:37:30;-3.00;99.90
14359;DHT22;7263;49.418;11.064;2023-02-28T01:39:57;-3.00;99.90
14359;DHT22;7263;49.418;11.064;2023-02-28T01:42:24;-3.00;99.90
14359;DHT22;7263;49.418;11.064;2023-02-28T01:45:08;-2.90;99.90
14359;DHT22;7263;49.418;11.064;2023-02-28T01:47:43;-2.90;99.90
14359;DHT22;7263;49.418;11.064;2023-02-28T01:50:14;-2.90;99.90
14359;DHT22;7263;49.418;11.064;2023-02-28T01:52:43;-2.80;99.90
14359;DHT22;7263;49.418;11.064;2023-02-28T01:55:11;-2.80;99.90
14359;DHT22;7263;49.418;11.064;2023-02-28T01:57:42;-2.80;99.90
14359;DHT22;7263;49.418;11.064;2023-02-28T02:00:11;-2.80;99.90
14359;DHT22;7263;49.418;11.064;2023-02-28T02:02:43;-2.80;99.90
14359;DHT22;7263;49.418;11.064;2023-02-28T02:05:13;-2.80;99.90
14359;DHT22;7263;49.418;11.064;2023-02-28T02:07:42;-2.80;99.90
14359;DHT22;7263;49.418;11.064;2023-02-28T02:10:12;-2.80;99.90
14359;DHT22;7263;49.418;11.064;2023-02-28T02:12:55;-2.80;99.90
14359;DHT22;7263;49.418;11.064;2023-02-28T02:15:30;-2.90;99.90
14359;DHT22;7263;49.418;11.064;2023-02-28T02:18:04;-2.90;99.90
14359;DHT22;7263;49.418;11.064;2023-02-28T02:20:51;-2.80;99.90
14359;DHT22;7263;49.418;11.064;2023-02-28T02:26:52;-2.90;99.90
14359;DHT22;7263;49.418;11.064;2023-02-28T02:35:52;-2.90;99.90
14359;DHT22;7263;49.418;11.064;2023-02-28T02:38:29;-2.90;99.90
14359;DHT22;7263;49.418;11.064;2023-02-28T02:41:04;-2.90;99.90
14359;DHT22;7263;49.418;11.064;2023-02-28T02:43:37;-2.80;99.90
14359;DHT22;7263;49.418;11.064;2023-02-28T02:46:10;-2.80;99.90
14359;DHT22;7263;49.418;11.064;2023-02-28T02:48:40;-2.80;99.90
14359;DHT22;7263;49.418;11.064;2023-02-28T02:51:13;-2.80;99.90
14359;DHT22;7263;49.418;11.064;2023-02-28T02:53:44;-2.80;99.90
14359;DHT22;7263;49.418;11.064;2023-02-28T02:56:12;-2.80;99.90
14359;DHT22;7263;49.418;11.064;2023-02-28T02:58:42;-2.80;99.90
14359;DHT22;7263;49.418;11.064;2023-02-28T03:01:12;-2.80;99.90
14359;DHT22;7263;49.418;11.064;2023-02-28T03:03:41;-2.80;99.90
14359;DHT22;7263;49.418;11.064;2023-02-28T03:06:10;-2.70;99.90
14359;DHT22;7263;49.418;11.064;2023-02-28T03:08:38;-2.80;99.90
14359;DHT22;7263;49.418;11.064;2023-02-28T03:11:06;-2.80;99.90
14359;DHT22;7263;49.418;11.064;2023-02-28T03:13:55;-2.80;99.90
14359;DHT22;7263;49.418;11.064;2023-02-28T03:16:38;-2.70;99.90
14359;DHT22;7263;49.418;11.064;2023-02-28T03:19:23;-2.70;99.90
14359;DHT22;7263;49.418;11.064;2023-02-28T03:22:00;-2.70;99.90
14359;DHT22;7263;49.418;11.064;2023-02-28T03:24:34;-2.70;99.90
14359;DHT22;7263;49.418;11.064;2023-02-28T03:27:09;-2.80;99.90
14359;DHT22;7263;49.418;11.064;2023-02-28T03:29:41;-2.80;99.90
14359;DHT22;7263;49.418;11.064;2023-02-28T03:32:14;-2.80;99.90
14359;DHT22;7263;49.418;11.064;2023-02-28T03:34:50;-2.90;99.90
14359;DHT22;7263;49.418;11.064;2023-02-28T03:37:25;-2.80;99.90
14359;DHT22;7263;49.418;11.064;2023-02-28T03:39:56;-2.80;99.90
14359;DHT22;7263;49.418;11.064;2023-02-28T03:42:27;-2.80;99.90
14359;DHT22;7263;49.418;11.064;2023-02-28T03:44:58;-2.80;99.90
14359;DHT22;7263;49.418;11.064;2023-02-28T03:47:30;-2.80;99.90
14359;DHT22;7263;49.418;11.064;2023-02-28T03:50:03;-2.80;99.90
14359;DHT22;7263;49.418;11.064;2023-02-28T03:52:36;-2.80;99.90
14359;DHT22;7263;49.418;11.064;2023-02-28T03:55:10;-2.80;99.90
14359;DHT22;7263;49.418;11.064;2023-02-28T03:57:43;-2.90;99.90
14359;DHT22;7263;49.418;11.064;2023-02-28T04:00:19;-2.80;99.90
14359;DHT22;7263;49.418;11.064;2023-02-28T04:02:46;-2.70;99.90
14359;DHT22;7263;49.418;11.064;2023-02-28T04:05:18;-2.80;99.90
14359;DHT22;7263;49.418;11.064;2023-02-28T04:07:46;-2.80;99.90
14359;DHT22;7263;49.418;11.064;2023-02-28T04:10:15;-2.80;99.90
14359;DHT22;7263;49.418;11.064;2023-02-28T04:12:42;-2.80;99.90
14359;DHT22;7263;49.418;11.064;2023-02-28T04:15:09;-2.80;99.90
14359;DHT22;7263;49.418;11.064;2023-02-28T04:17:37;-2.80;99.90
14359;DHT22;7263;49.418;11.064;2023-02-28T04:20:04;-2.90;99.90
14359;DHT22;7263;49.418;11.064;2023-02-28T04:22:35;-2.90;99.90
14359;DHT22;7263;49.418;11.064;2023-02-28T04:25:05;-2.90;99.90
14359;DHT22;7263;49.418;11.064;2023-02-28T04:27:32;-2.90;99.90
14359;DHT22;7263;49.418;11.064;2023-02-28T04:29:59;-2.90;99.90
14359;DHT22;7263;49.418;11.064;2023-02-28T04:32:25;-2.90;99.90
14359;DHT22;7263;49.418;11.064;2023-02-28T04:34:52;-2.90;99.90
14359;DHT22;7263;49.418;11.064;2023-02-28T04:37:19;-2.90;99.90
14359;DHT22;7263;49.418;11.064;2023-02-28T04:39:46;-2.90;99.90
14359;DHT22;7263;49.418;11.064;2023-02-28T04:42:15;-2.90;99.90
14359;DHT22;7263;49.418;11.064;2023-02-28T04:44:41;-2.90;99.90
14359;DHT22;7263;49.418;11.064;2023-02-28T04:47:08;-2.90;99.90
14359;DHT22;7263;49.418;11.064;2023-02-28T04:49:35;-2.90;99.90
14359;DHT22;7263;49.418;11.064;2023-02-28T04:52:02;-2.90;99.90
14359;DHT22;7263;49.418;11.064;2023-02-28T04:54:29;-2.90;99.90
14359;DHT22;7263;49.418;11.064;2023-02-28T04:56:55;-2.90;99.90
14359;DHT22;7263;49.418;11.064;2023-02-28T04:59:24;-2.90;99.90
14359;DHT22;7263;49.418;11.064;2023-02-28T05:01:51;-2.90;99.90
14359;DHT22;7263;49.418;11.064;2023-02-28T05:04:17;-2.80;99.90
14359;DHT22;7263;49.418;11.064;2023-02-28T05:06:44;-2.80;99.90
14359;DHT22;7263;49.418;11.064;2023-02-28T05:09:11;-2.90;99.90
14359;DHT22;7263;49.418;11.064;2023-02-28T05:11:38;-2.90;99.90
14359;DHT22;7263;49.418;11.064;2023-02-28T05:14:08;-2.90;99.90
14359;DHT22;7263;49.418;11.064;2023-02-28T05:16:37;-2.90;99.90
14359;DHT22;7263;49.418;11.064;2023-02-28T05:19:03;-2.90;99.90
14359;DHT22;7263;49.418;11.064;2023-02-28T05:21:32;-2.90;99.90
14359;DHT22;7263;49.418;11.064;2023-02-28T05:24:00;-0.90;99.90
14359;DHT22;7263;49.418;11.064;2023-02-28T05:26:28;-2.90;99.90
14359;DHT22;7263;49.418;11.064;2023-02-28T05:28:55;-2.90;99.90
14359;DHT22;7263;49.418;11.064;2023-02-28T05:31:22;-2.90;99.90
14359;DHT22;7263;49.418;11.064;2023-02-28T05:33:50;-2.90;99.90
14359;DHT22;7263;49.418;11.064;2023-02-28T05:36:17;-2.90;99.90
14359;DHT22;7263;49.418;11.064;2023-02-28T05:38:46;-2.90;99.90
14359;DHT22;7263;49.418;11.064;2023-02-28T05:41:13;-3.00;99.90
14359;DHT22;7263;49.418;11.064;2023-02-28T05:43:39;-3.00;99.90
14359;DHT22;7263;49.418;11.064;2023-02-28T05:46:07;-3.00;99.90
14359;DHT22;7263;49.418;11.064;2023-02-28T05:48:36;-3.00;99.90
14359;DHT22;7263;49.418;11.064;2023-02-28T05:51:05;-3.00;99.90
14359;DHT22;7263;49.418;11.064;2023-02-28T05:56:00;-3.00;99.90
14359;DHT22;7263;49.418;11.064;2023-02-28T05:58:27;-2.90;99.90
14359;DHT22;7263;49.418;11.064;2023-02-28T06:00:56;-2.90;99.90
14359;DHT22;7263;49.418;11.064;2023-02-28T06:03:23;-3.00;99.90
14359;DHT22;7263;49.418;11.064;2023-02-28T06:05:50;-2.90;99.90
14359;DHT22;7263;49.418;11.064;2023-02-28T06:08:18;-3.00;99.90
14359;DHT22;7263;49.418;11.064;2023-02-28T06:10:45;-3.00;99.90
14359;DHT22;7263;49.418;11.064;2023-02-28T06:13:12;-3.00;99.90
14359;DHT22;7263;49.418;11.064;2023-02-28T06:15:39;-3.00;99.90
14359;DHT22;7263;49.418;11.064;2023-02-28T06:18:06;-3.00;99.90
14359;DHT22;7263;49.418;11.064;2023-02-28T06:20:33;-3.00;99.90
14359;DHT22;7263;49.418;11.064;2023-02-28T06:23:01;-3.00;99.90
14359;DHT22;7263;49.418;11.064;2023-02-28T06:25:29;-3.00;99.90
14359;DHT22;7263;49.418;11.064;2023-02-28T06:27:56;-2.90;99.90
14359;DHT22;7263;49.418;11.064;2023-02-28T06:30:23;-2.90;99.90
14359;DHT22;7263;49.418;11.064;2023-02-28T06:32:52;-2.80;99.90
14359;DHT22;7263;49.418;11.064;2023-02-28T06:35:19;-2.80;99.90
14359;DHT22;7263;49.418;11.064;2023-02-28T06:37:46;-2.80;99.90
14359;DHT22;7263;49.418;11.064;2023-02-28T06:40:13;-2.70;99.90
14359;DHT22;7263;49.418;11.064;2023-02-28T06:42:42;-2.60;99.90
14359;DHT22;7263;49.418;11.064;2023-02-28T06:45:10;-2.60;99.90
14359;DHT22;7263;49.418;11.064;2023-02-28T06:47:38;-2.50;99.90
14359;DHT22;7263;49.418;11.064;2023-02-28T06:50:07;-2.50;99.90
14359;DHT22;7263;49.418;11.064;2023-02-28T06:52:34;-2.40;99.90
14359;DHT22;7263;49.418;11.064;2023-02-28T06:55:03;-2.40;99.90
14359;DHT22;7263;49.418;11.064;2023-02-28T06:57:31;-2.30;99.90
14359;DHT22;7263;49.418;11.064;2023-02-28T07:00:01;-2.20;99.90
14359;DHT22;7263;49.418;11.064;2023-02-28T07:02:31;-2.20;99.90
14359;DHT22;7263;49.418;11.064;2023-02-28T07:04:58;-2.10;99.90
14359;DHT22;7263;49.418;11.064;2023-02-28T07:07:24;-2.00;99.90
14359;DHT22;7263;49.418;11.064;2023-02-28T07:09:51;-1.90;99.90
14359;DHT22;7263;49.418;11.064;2023-02-28T07:12:18;-1.70;99.90
14359;DHT22;7263;49.418;11.064;2023-02-28T07:14:45;-1.60;99.90
14359;DHT22;7263;49.418;11.064;2023-02-28T07:17:13;-1.40;99.90
14359;DHT22;7263;49.418;11.064;2023-02-28T07:19:40;-1.20;99.90
14359;DHT22;7263;49.418;11.064;2023-02-28T07:22:07;-1.20;99.90
14359;DHT22;7263;49.418;11.064;2023-02-28T07:24:34;-1.20;99.90
14359;DHT22;7263;49.418;11.064;2023-02-28T07:27:00;-1.10;99.90
14359;DHT22;7263;49.418;11.064;2023-02-28T07:29:27;-1.20;99.90
14359;DHT22;7263;49.418;11.064;2023-02-28T07:31:55;-1.20;99.90
14359;DHT22;7263;49.418;11.064;2023-02-28T07:34:23;-1.10;99.90
14359;DHT22;7263;49.418;11.064;2023-02-28T07:36:52;-1.00;99.90
14359;DHT22;7263;49.418;11.064;2023-02-28T07:39:20;-0.80;99.90
14359;DHT22;7263;49.418;11.064;2023-02-28T07:41:47;-0.70;99.90
14359;DHT22;7263;49.418;11.064;2023-02-28T07:44:13;-0.60;99.90
14359;DHT22;7263;49.418;11.064;2023-02-28T07:46:40;-0.50;99.90
14359;DHT22;7263;49.418;11.064;2023-02-28T07:49:07;-0.20;99.90
14359;DHT22;7263;49.418;11.064;2023-02-28T07:51:35;-0.10;99.90
14359;DHT22;7263;49.418;11.064;2023-02-28T07:54:02;-0.10;99.90
14359;DHT22;7263;49.418;11.064;2023-02-28T07:56:29;0.20;99.90
14359;DHT22;7263;49.418;11.064;2023-02-28T07:58:56;0.10;99.90
14359;DHT22;7263;49.418;11.064;2023-02-28T08:01:23;0.20;99.90
14359;DHT22;7263;49.418;11.064;2023-02-28T08:03:49;0.30;99.90
14359;DHT22;7263;49.418;11.064;2023-02-28T08:06:18;0.60;99.90
14359;DHT22;7263;49.418;11.064;2023-02-28T08:08:47;0.70;99.90
14359;DHT22;7263;49.418;11.064;2023-02-28T08:11:15;0.80;99.90
14359;DHT22;7263;49.418;11.064;2023-02-28T08:13:42;0.70;99.90
14359;DHT22;7263;49.418;11.064;2023-02-28T08:16:10;0.70;99.90
14359;DHT22;7263;49.418;11.064;2023-02-28T08:18:36;0.80;99.90
14359;DHT22;7263;49.418;11.064;2023-02-28T08:21:06;0.90;99.90
14359;DHT22;7263;49.418;11.064;2023-02-28T08:23:33;0.90;99.90
14359;DHT22;7263;49.418;11.064;2023-02-28T08:26:02;0.90;99.90
14359;DHT22;7263;49.418;11.064;2023-02-28T08:28:29;0.80;99.90
14359;DHT22;7263;49.418;11.064;2023-02-28T08:30:56;0.80;99.90
14359;DHT22;7263;49.418;11.064;2023-02-28T08:33:23;0.90;99.90
14359;DHT22;7263;49.418;11.064;2023-02-28T08:35:53;1.10;99.90
14359;DHT22;7263;49.418;11.064;2023-02-28T08:38:20;1.20;99.90
14359;DHT22;7263;49.418;11.064;2023-02-28T08:40:47;1.20;99.90
14359;DHT22;7263;49.418;11.064;2023-02-28T08:43:15;1.30;99.90
14359;DHT22;7263;49.418;11.064;2023-02-28T08:45:42;1.60;99.90
14359;DHT22;7263;49.418;11.064;2023-02-28T08:48:09;1.80;99.90
14359;DHT22;7263;49.418;11.064;2023-02-28T08:50:35;1.60;99.90
14359;DHT22;7263;49.418;11.064;2023-02-28T08:53:02;1.70;99.90
14359;DHT22;7263;49.418;11.064;2023-02-28T08:55:29;1.80;99.90
14359;DHT22;7263;49.418;11.064;2023-02-28T08:57:56;2.10;99.90
14359;DHT22;7263;49.418;11.064;2023-02-28T09:00:25;2.00;99.90
14359;DHT22;7263;49.418;11.064;2023-02-28T09:02:52;2.20;99.90
14359;DHT22;7263;49.418;11.064;2023-02-28T09:05:20;2.30;99.90
14359;DHT22;7263;49.418;11.064;2023-02-28T09:07:46;2.40;99.90
14359;DHT22;7263;49.418;11.064;2023-02-28T09:10:13;2.40;99.90
14359;DHT22;7263;49.418;11.064;2023-02-28T09:12:40;2.30;99.90
14359;DHT22;7263;49.418;11.064;2023-02-28T09:15:08;2.70;99.90
14359;DHT22;7263;49.418;11.064;2023-02-28T09:17:36;2.70;99.90
14359;DHT22;7263;49.418;11.064;2023-02-28T09:20:03;2.80;99.90
14359;DHT22;7263;49.418;11.064;2023-02-28T09:22:30;2.50;99.90
14359;DHT22;7263;49.418;11.064;2023-02-28T09:24:57;2.30;99.90
14359;DHT22;7263;49.418;11.064;2023-02-28T09:27:24;2.30;99.90
14359;DHT22;7263;49.418;11.064;2023-02-28T09:29:51;2.70;99.90
14359;DHT22;7263;49.418;11.064;2023-02-28T09:32:18;2.80;99.90
14359;DHT22;7263;49.418;11.064;2023-02-28T09:34:46;2.90;99.90
14359;DHT22;7263;49.418;11.064;2023-02-28T09:37:13;3.30;99.90
14359;DHT22;7263;49.418;11.064;2023-02-28T09:39:39;3.70;99.90
14359;DHT22;7263;49.418;11.064;2023-02-28T09:42:11;3.80;99.90
14359;DHT22;7263;49.418;11.064;2023-02-28T09:44:45;4.10;99.90
14359;DHT22;7263;49.418;11.064;2023-02-28T09:47:17;3.50;99.90
14359;DHT22;7263;49.418;11.064;2023-02-28T09:49:47;3.40;99.90
14359;DHT22;7263;49.418;11.064;2023-02-28T09:52:17;3.60;99.90
14359;DHT22;7263;49.418;11.064;2023-02-28T09:54:45;3.80;99.90
14359;DHT22;7263;49.418;11.064;2023-02-28T09:57:17;3.90;99.90
14359;DHT22;7263;49.418;11.064;2023-02-28T09:59:54;3.70;99.90
14359;DHT22;7263;49.418;11.064;2023-02-28T10:02:40;4.10;99.90
14359;DHT22;7263;49.418;11.064;2023-02-28T10:05:12;4.50;99.90
14359;DHT22;7263;49.418;11.064;2023-02-28T10:07:50;4.20;99.90
14359;DHT22;7263;49.418;11.064;2023-02-28T10:10:28;4.30;99.90
14359;DHT22;7263;49.418;11.064;2023-02-28T10:12:59;4.20;99.90
14359;DHT22;7263;49.418;11.064;2023-02-28T10:15:29;4.30;99.90
14359;DHT22;7263;49.418;11.064;2023-02-28T10:18:00;4.10;99.90
14359;DHT22;7263;49.418;11.064;2023-02-28T10:20:33;4.10;99.90
14359;DHT22;7263;49.418;11.064;2023-02-28T10:23:05;4.40;99.90
14359;DHT22;7263;49.418;11.064;2023-02-28T10:25:37;4.40;99.90
14359;DHT22;7263;49.418;11.064;2023-02-28T10:28:10;4.50;99.90
14359;DHT22;7263;49.418;11.064;2023-02-28T10:30:39;4.60;99.90
14359;DHT22;7263;49.418;11.064;2023-02-28T10:33:18;4.20;99.90
14359;DHT22;7263;49.418;11.064;2023-02-28T10:35:47;4.00;99.90
14359;DHT22;7263;49.418;11.064;2023-02-28T10:38:19;3.80;99.90
14359;DHT22;7263;49.418;11.064;2023-02-28T10:40:46;3.90;99.90
14359;DHT22;7263;49.418;11.064;2023-02-28T10:43:21;3.80;99.90
14359;DHT22;7263;49.418;11.064;2023-02-28T10:45:58;4.00;99.90
14359;DHT22;7263;49.418;11.064;2023-02-28T10:48:35;4.50;99.90
14359;DHT22;7263;49.418;11.064;2023-02-28T10:51:06;4.50;99.90
14359;DHT22;7263;49.418;11.064;2023-02-28T10:53:37;4.40;99.90
14359;DHT22;7263;49.418;11.064;2023-02-28T10:56:12;4.40;99.90
14359;DHT22;7263;49.418;11.064;2023-02-28T10:58:54;4.70;99.90
14359;DHT22;7263;49.418;11.064;2023-02-28T11:01:24;4.70;99.50
14359;DHT22;7263;49.418;11.064;2023-02-28T11:03:52;4.70;99.80
14359;DHT22;7263;49.418;11.064;2023-02-28T11:06:21;4.40;99.50
14359;DHT22;7263;49.418;11.064;2023-02-28T11:08:51;4.20;99.80
14359;DHT22;7263;49.418;11.064;2023-02-28T11:11:20;4.20;99.90
14359;DHT22;7263;49.418;11.064;2023-02-28T11:13:48;4.10;99.90
14359;DHT22;7263;49.418;11.064;2023-02-28T11:16:17;4.10;99.90
14359;DHT22;7263;49.418;11.064;2023-02-28T11:18:48;4.30;99.90
14359;DHT22;7263;49.418;11.064;2023-02-28T11:21:23;6.20;99.90
14359;DHT22;7263;49.418;11.064;2023-02-28T11:23:53;4.20;99.90
14359;DHT22;7263;49.418;11.064;2023-02-28T11:26:39;4.10;99.90
14359;DHT22;7263;49.418;11.064;2023-02-28T11:29:16;4.20;99.70
14359;DHT22;7263;49.418;11.064;2023-02-28T11:32:00;4.10;99.90
14359;DHT22;7263;49.418;11.064;2023-02-28T11:34:28;4.20;99.90
14359;DHT22;7263;49.418;11.064;2023-02-28T11:36:58;4.20;99.90
14359;DHT22;7263;49.418;11.064;2023-02-28T11:39:26;4.30;99.90
14359;DHT22;7263;49.418;11.064;2023-02-28T11:42:04;4.50;99.90
14359;DHT22;7263;49.418;11.064;2023-02-28T11:44:47;4.70;99.90
14359;DHT22;7263;49.418;11.064;2023-02-28T11:47:26;4.60;99.60
14359;DHT22;7263;49.418;11.064;2023-02-28T11:50:07;4.30;99.90
14359;DHT22;7263;49.418;11.064;2023-02-28T11:52:44;4.20;99.90
14359;DHT22;7263;49.418;11.064;2023-02-28T11:55:16;4.60;99.90
14359;DHT22;7263;49.418;11.064;2023-02-28T11:58:14;4.40;99.90
14359;DHT22;7263;49.418;11.064;2023-02-28T12:03:47;4.20;99.90
14359;DHT22;7263;49.418;11.064;2023-02-28T12:06:22;4.20;99.70
14359;DHT22;7263;49.418;11.064;2023-02-28T12:09:02;4.20;99.80
14359;DHT22;7263;49.418;11.064;2023-02-28T12:11:36;4.20;99.90
14359;DHT22;7263;49.418;11.064;2023-02-28T12:14:30;4.40;99.60
14359;DHT22;7263;49.418;11.064;2023-02-28T12:17:11;4.50;99.90
14359;DHT22;7263;49.418;11.064;2023-02-28T12:19:45;4.70;99.70
14359;DHT22;7263;49.418;11.064;2023-02-28T12:22:31;4.80;99.70
14359;DHT22;7263;49.418;11.064;2023-02-28T12:28:08;4.90;99.10
14359;DHT22;7263;49.418;11.064;2023-02-28T12:30:38;4.90;98.80
14359;DHT22;7263;49.418;11.064;2023-02-28T12:33:11;4.60;98.90
14359;DHT22;7263;49.418;11.064;2023-02-28T12:35:43;4.60;98.90
14359;DHT22;7263;49.418;11.064;2023-02-28T12:38:15;4.40;99.00
14359;DHT22;7263;49.418;11.064;2023-02-28T12:40:51;4.30;99.10
14359;DHT22;7263;49.418;11.064;2023-02-28T12:43:21;4.30;99.20
14359;DHT22;7263;49.418;11.064;2023-02-28T12:45:52;4.10;99.70
14359;DHT22;7263;49.418;11.064;2023-02-28T12:48:24;4.10;99.30
14359;DHT22;7263;49.418;11.064;2023-02-28T12:50:52;4.10;99.50
14359;DHT22;7263;49.418;11.064;2023-02-28T12:53:25;3.90;99.70
14359;DHT22;7263;49.418;11.064;2023-02-28T12:56:07;3.90;99.90
14359;DHT22;7263;49.418;11.064;2023-02-28T12:58:39;3.90;99.80
14359;DHT22;7263;49.418;11.064;2023-02-28T13:01:27;3.90;99.90
14359;DHT22;7263;49.418;11.064;2023-02-28T13:04:27;3.90;99.90
14359;DHT22;7263;49.418;11.064;2023-02-28T13:07:15;3.90;99.90
14359;DHT22;7263;49.418;11.064;2023-02-28T13:09:52;3.80;99.90
14359;DHT22;7263;49.418;11.064;2023-02-28T13:12:21;3.80;99.90
14359;DHT22;7263;49.418;11.064;2023-02-28T13:14:49;7.70;99.90
14359;DHT22;7263;49.418;11.064;2023-02-28T13:17:19;3.80;99.90
14359;DHT22;7263;49.418;11.064;2023-02-28T13:19:56;3.80;99.90
14359;DHT22;7263;49.418;11.064;2023-02-28T13:22:38;3.90;99.90
14359;DHT22;7263;49.418;11.064;2023-02-28T13:31:47;4.00;99.90
14359;DHT22;7263;49.418;11.064;2023-02-28T13:34:35;4.00;99.90
14359;DHT22;7263;49.418;11.064;2023-02-28T13:37:34;3.90;99.90
14359;DHT22;7263;49.418;11.064;2023-02-28T13:40:31;3.90;99.90
14359;DHT22;7263;49.418;11.064;2023-02-28T13:43:03;3.90;99.90
14359;DHT22;7263;49.418;11.064;2023-02-28T13:45:30;3.80;99.90
14359;DHT22;7263;49.418;11.064;2023-02-28T13:48:04;3.90;99.90
14359;DHT22;7263;49.418;11.064;2023-02-28T13:50:34;3.90;99.90
14359;DHT22;7263;49.418;11.064;2023-02-28T13:53:27;3.80;99.90
14359;DHT22;7263;49.418;11.064;2023-02-28T13:56:03;3.80;99.90
14359;DHT22;7263;49.418;11.064;2023-02-28T13:58:43;3.90;99.90
14359;DHT22;7263;49.418;11.064;2023-02-28T14:04:57;3.90;99.90
14359;DHT22;7263;49.418;11.064;2023-02-28T14:07:30;3.90;99.90
14359;DHT22;7263;49.418;11.064;2023-02-28T14:10:02;3.90;99.90
14359;DHT22;7263;49.418;11.064;2023-02-28T14:13:02;3.90;99.90
14359;DHT22;7263;49.418;11.064;2023-02-28T14:15:43;3.80;99.90
14359;DHT22;7263;49.418;11.064;2023-02-28T14:18:17;3.80;99.90
14359;DHT22;7263;49.418;11.064;2023-02-28T14:20:46;3.80;99.90
14359;DHT22;7263;49.418;11.064;2023-02-28T14:23:23;3.90;99.90
14359;DHT22;7263;49.418;11.064;2023-02-28T14:25:59;3.90;99.90
14359;DHT22;7263;49.418;11.064;2023-02-28T14:31:23;3.90;99.90
14359;DHT22;7263;49.418;11.064;2023-02-28T14:34:03;3.90;99.90
14359;DHT22;7263;49.418;11.064;2023-02-28T14:36:33;3.90;99.90
14359;DHT22;7263;49.418;11.064;2023-02-28T14:39:06;3.90;99.90
14359;DHT22;7263;49.418;11.064;2023-02-28T14:41:35;3.90;99.90
14359;DHT22;7263;49.418;11.064;2023-02-28T14:44:13;3.90;99.90
14359;DHT22;7263;49.418;11.064;2023-02-28T14:46:42;3.90;99.90
14359;DHT22;7263;49.418;11.064;2023-02-28T14:49:14;4.00;99.90
14359;DHT22;7263;49.418;11.064;2023-02-28T14:51:42;3.90;99.90
14359;DHT22;7263;49.418;11.064;2023-02-28T14:54:14;3.90;99.90
14359;DHT22;7263;49.418;11.064;2023-02-28T14:56:42;3.90;99.90
14359;DHT22;7263;49.418;11.064;2023-02-28T14:59:24;4.00;99.90
14359;DHT22;7263;49.418;11.064;2023-02-28T15:01:52;3.90;99.90
14359;DHT22;7263;49.418;11.064;2023-02-28T15:04:24;4.00;99.90
14359;DHT22;7263;49.418;11.064;2023-02-28T15:07:07;3.90;99.90
14359;DHT22;7263;49.418;11.064;2023-02-28T15:09:35;3.90;99.90
14359;DHT22;7263;49.418;11.064;2023-02-28T15:12:02;3.80;99.90
14359;DHT22;7263;49.418;11.064;2023-02-28T15:14:29;3.90;99.90
14359;DHT22;7263;49.418;11.064;2023-02-28T15:16:57;3.90;99.90
14359;DHT22;7263;49.418;11.064;2023-02-28T15:19:28;3.90;99.90
14359;DHT22;7263;49.418;11.064;2023-02-28T15:21:58;3.90;99.90
14359;DHT22;7263;49.418;11.064;2023-02-28T15:24:32;7.90;99.90
14359;DHT22;7263;49.418;11.064;2023-02-28T15:27:05;3.90;99.90
14359;DHT22;7263;49.418;11.064;2023-02-28T15:29:42;3.80;99.90
14359;DHT22;7263;49.418;11.064;2023-02-28T15:32:24;3.80;99.90
14359;DHT22;7263;49.418;11.064;2023-02-28T15:34:52;3.80;99.90
14359;DHT22;7263;49.418;11.064;2023-02-28T15:37:38;3.80;99.90
14359;DHT22;7263;49.418;11.064;2023-02-28T15:40:13;3.80;99.90
14359;DHT22;7263;49.418;11.064;2023-02-28T15:42:42;3.80;99.90
14359;DHT22;7263;49.418;11.064;2023-02-28T15:45:32;3.80;99.90
14359;DHT22;7263;49.418;11.064;2023-02-28T15:48:03;3.80;99.90
14359;DHT22;7263;49.418;11.064;2023-02-28T15:50:29;3.80;99.90
14359;DHT22;7263;49.418;11.064;2023-02-28T15:52:56;3.70;99.90
14359;DHT22;7263;49.418;11.064;2023-02-28T15:55:27;3.70;99.90
14359;DHT22;7263;49.418;11.064;2023-02-28T15:57:57;3.70;99.90
14359;DHT22;7263;49.418;11.064;2023-02-28T16:00:28;3.60;99.90
14359;DHT22;7263;49.418;11.064;2023-02-28T16:02:58;3.60;99.90
14359;DHT22;7263;49.418;11.064;2023-02-28T16:05:27;3.50;99.90
14359;DHT22;7263;49.418;11.064;2023-02-28T16:07:57;3.50;99.90
14359;DHT22;7263;49.418;11.064;2023-02-28T16:10:24;4.80;99.90
14359;DHT22;7263;49.418;11.064;2023-02-28T16:12:54;2.40;99.90
14359;DHT22;7263;49.418;11.064;2023-02-28T16:15:24;3.40;99.90
14359;DHT22;7263;49.418;11.064;2023-02-28T16:17:53;3.30;99.90
14359;DHT22;7263;49.418;11.064;2023-02-28T16:20:21;3.20;99.90
14359;DHT22;7263;49.418;11.064;2023-02-28T16:22:48;3.20;99.90
14359;DHT22;7263;49.418;11.064;2023-02-28T16:25:17;3.20;99.90
14359;DHT22;7263;49.418;11.064;2023-02-28T16:27:47;3.10;99.90
14359;DHT22;7263;49.418;11.064;2023-02-28T16:30:20;3.10;99.90
14359;DHT22;7263;49.418;11.064;2023-02-28T16:32:48;3.00;99.90